METAR Data
IDs: Format: Raw Decoded Include TAF

Data at: 2159 UTC 18 Sep 2018

KBLU 182152Z AUTO VRB04G14KT 10SM CLR 19/M01 A3007 RMK AO2 SLP115 T01941006
KBLU 182052Z AUTO 17006KT 10SM CLR 19/M01 A3009 RMK AO2 SLP120 T01891006 58007 $
KBLU 181952Z AUTO 17007KT 140V220 10SM CLR 18/M01 A3010 RMK AO2 SLP120 T01831006 $
KBLU 181852Z AUTO 20009G15KT 10SM CLR 17/M01 A3011 RMK AO2 SLP129 T01721011 $
KBLU 181752Z AUTO VRB06KT 10SM CLR 17/M01 A3011 RMK AO2 SLP135 T01671006 10167 20117 $
KBLU 181652Z AUTO 16007KT 10SM CLR 16/M02 A3011 RMK AO2 SLP139 T01561017 $
KBLU 181552Z AUTO VRB04KT 10SM CLR 14/M03 A3010 RMK AO2 SLP138 T01441028
KBLU 181452Z AUTO 00000KT 10SM CLR 13/M02 A3010 RMK AO2 SLP135 T01281022 53009
KBLU 181352Z AUTO 13003KT 10SM CLR 12/M03 A3008 RMK AO2 SLP127 T01171028
KBLU 181252Z AUTO 12003KT 10SM CLR 12/M02 A3008 RMK AO2 SLP121 T01171022
KBLU 181152Z AUTO 12003KT 10SM CLR 12/01 A3007 RMK AO2 SLP115 T01170006 10133 20117 58005
KBLU 181052Z AUTO 12003KT 10SM CLR 12/02 A3008 RMK AO2 SLP116 T01170017
KBLU 180952Z AUTO 11003KT 10SM CLR 12/01 A3008 RMK AO2 SLP119 T01170006
KBLU 180852Z AUTO 11003KT 10SM CLR 12/01 A3009 RMK AO2 SLP119 T01220006 57003
KBLU 180752Z AUTO 00000KT 10SM CLR 13/02 A3009 RMK AO2 SLP121 T01280017 401940111
KBLU 180652Z AUTO 00000KT 10SM CLR 13/02 A3009 RMK AO2 SLP124 T01280017
KBLU 180552Z AUTO 00000KT 10SM CLR 12/02 A3010 RMK AO2 SLP132 T01170017 10183 20111 50002
KBLU 180452Z AUTO 09003KT 10SM CLR 11/03 A3010 RMK AO2 SLP136 T01110028
KBLU 180352Z AUTO 00000KT 10SM CLR 12/03 A3010 RMK AO2 SLP136 T01220028 TSNO
KBLU 180252Z AUTO 00000KT 10SM CLR 13/02 A3009 RMK AO2 SLP133 T01330017 52001 TSNO
KBLU 180152Z AUTO VRB04KT 10SM CLR 16/02 A3009 RMK AO2 SLP130 T01560017
KBLU 180052Z AUTO 24005KT 10SM CLR 17/01 A3009 RMK AO2 SLP123 T01720006
KBLU 172352Z AUTO 19007KT 160V220 10SM CLR 18/M02 A3009 RMK AO2 SLP120 T01831017 10194 20161 56006
KBLU 172252Z AUTO 17006KT 10SM CLR 19/M03 A3010 RMK AO2 SLP120 T01891028
KBLU 172152Z AUTO 10SM CLR 18/M03 A3010 RMK AO2 SLP124 T01831028
KBLU 172052Z AUTO 17005G14KT 10SM CLR 18/M02 A3011 RMK AO2 SLP124 T01831017 58003
KBLU 171952Z AUTO 17009KT 10SM CLR 18/M01 A3012 RMK AO2 SLP132 T01831011
KBLU 171852Z AUTO 17007G16KT 120V200 10SM CLR 17/M02 A3012 RMK AO2 SLP133 T01721022
KBLU 171752Z AUTO 18008KT 10SM CLR 16/M01 A3012 RMK AO2 SLP138 T01611011 10161 20111 51005
KBLU 171652Z AUTO 18008KT 10SM CLR 16/M01 A3012 RMK AO2 SLP137 T01561006
KBLU 171552Z AUTO VRB04KT 10SM CLR 14/00 A3011 RMK AO2 SLP141 T01440000
KBLU 171452Z AUTO 13004KT 10SM CLR 13/M01 A3011 RMK AO2 SLP140 T01281006 53005
KBLU 171352Z AUTO 14004KT 10SM CLR 12/M01 A3010 RMK AO2 SLP131 T01171006 $
KBLU 171252Z AUTO 14004KT 10SM CLR 12/M01 A3009 RMK AO2 SLP123 T01221006 $
KBLU 171152Z AUTO 13004KT 10SM CLR 12/M01 A3009 RMK AO2 SLP120 T01221006 10133 20122 58007 $
KBLU 171052Z AUTO 11003KT 10SM CLR 13/M01 A3009 RMK AO2 SLP122 T01281006 $